createdAt,value
2022-12-18T00:01:10.380Z,35.31
2022-12-18T00:03:36.723Z,35.76
2022-12-18T00:06:03.221Z,36.99
2022-12-18T00:08:29.474Z,36.27
2022-12-18T00:10:55.725Z,35.00
2022-12-18T00:13:26.710Z,35.42
2022-12-18T00:15:54.198Z,36.11
2022-12-18T00:18:22.934Z,35.19
2022-12-18T00:20:49.170Z,35.70
2022-12-18T00:23:15.434Z,36.35
2022-12-18T00:25:41.701Z,35.53
2022-12-18T00:28:07.964Z,34.51
2022-12-18T00:30:34.209Z,35.54
2022-12-18T00:33:00.450Z,35.54
2022-12-18T00:35:26.767Z,36.14
2022-12-18T00:37:53.036Z,36.35
2022-12-18T00:40:19.301Z,35.78
2022-12-18T00:42:45.549Z,35.38
2022-12-18T00:45:13.158Z,35.97
2022-12-18T00:47:39.591Z,35.47
2022-12-18T00:50:06.376Z,34.92
2022-12-18T00:52:32.627Z,35.07
2022-12-18T00:55:01.850Z,34.90
2022-12-18T00:57:32.196Z,35.20
2022-12-18T00:59:58.441Z,35.45
2022-12-18T01:02:24.825Z,34.33
2022-12-18T01:04:51.247Z,34.81
2022-12-18T01:07:17.512Z,34.82
2022-12-18T01:09:43.773Z,34.65
2022-12-18T01:12:10.023Z,35.85
2022-12-18T01:14:36.318Z,35.13
2022-12-18T01:17:02.573Z,36.14
2022-12-18T01:19:28.834Z,37.16
2022-12-18T01:21:55.092Z,36.60
2022-12-18T01:24:21.353Z,36.40
2022-12-18T01:26:47.593Z,36.96
2022-12-18T01:29:13.843Z,36.28
2022-12-18T01:31:40.135Z,37.27
2022-12-18T01:34:06.459Z,36.10
2022-12-18T01:36:32.696Z,35.90
2022-12-18T01:38:58.935Z,37.26
2022-12-18T01:41:25.197Z,36.73
2022-12-18T01:43:51.457Z,35.61
2022-12-18T01:46:17.764Z,36.26
2022-12-18T01:48:44.026Z,36.13
2022-12-18T01:51:10.273Z,36.15
2022-12-18T01:53:37.000Z,36.80
2022-12-18T01:56:03.492Z,36.40
2022-12-18T01:58:29.749Z,36.59
2022-12-18T02:00:56.062Z,37.15
2022-12-18T02:03:22.466Z,36.84
2022-12-18T02:05:48.766Z,35.58
2022-12-18T02:08:15.056Z,37.74
2022-12-18T02:10:41.336Z,36.27
2022-12-18T02:13:07.580Z,36.13
2022-12-18T02:15:33.817Z,36.03
2022-12-18T02:18:00.093Z,36.90
2022-12-18T02:20:26.366Z,36.61
2022-12-18T02:22:52.650Z,36.65
2022-12-18T02:25:19.032Z,36.84
2022-12-18T02:27:45.294Z,36.52
2022-12-18T02:30:11.535Z,36.91
2022-12-18T02:32:37.804Z,36.75
2022-12-18T02:35:04.065Z,36.96
2022-12-18T02:37:30.317Z,36.86
2022-12-18T02:39:56.558Z,37.79
2022-12-18T02:42:22.816Z,37.08
2022-12-18T02:44:49.086Z,37.21
2022-12-18T02:47:15.337Z,36.89
2022-12-18T02:49:41.609Z,36.19
2022-12-18T02:52:07.878Z,37.47
2022-12-18T02:54:34.136Z,35.74
2022-12-18T02:57:00.374Z,36.83
2022-12-18T02:59:26.617Z,37.66
2022-12-18T03:01:52.969Z,38.58
2022-12-18T03:04:19.306Z,37.29
2022-12-18T03:06:45.553Z,37.40
2022-12-18T03:09:11.793Z,36.84
2022-12-18T03:11:38.056Z,36.61
2022-12-18T03:14:04.297Z,35.93
2022-12-18T03:16:30.603Z,35.19
2022-12-18T03:18:56.891Z,36.48
2022-12-18T03:21:23.153Z,38.02
2022-12-18T03:23:49.445Z,37.52
2022-12-18T03:26:15.711Z,36.00
2022-12-18T03:28:41.951Z,36.99
2022-12-18T03:31:08.237Z,37.32
2022-12-18T03:33:34.521Z,36.16
2022-12-18T03:36:00.780Z,36.72
2022-12-18T03:38:27.033Z,38.38
2022-12-18T03:40:53.285Z,36.80
2022-12-18T03:43:19.541Z,37.68
2022-12-18T03:45:45.819Z,38.86
2022-12-18T03:48:12.103Z,39.69
2022-12-18T03:50:38.345Z,39.30
2022-12-18T03:53:04.601Z,38.63
2022-12-18T03:55:30.845Z,37.82
2022-12-18T03:57:57.082Z,36.86
2022-12-18T04:00:23.364Z,35.24
2022-12-18T04:02:49.657Z,35.73
2022-12-18T04:05:15.908Z,37.59
2022-12-18T04:07:42.165Z,34.52
2022-12-18T04:10:08.426Z,35.89
2022-12-18T04:12:34.664Z,36.17
2022-12-18T04:15:00.899Z,34.95
2022-12-18T04:17:27.149Z,34.43
2022-12-18T04:19:53.414Z,34.65
2022-12-18T04:22:19.666Z,35.37
2022-12-18T04:24:46.843Z,35.61
2022-12-18T04:27:13.106Z,36.41
2022-12-18T04:29:39.344Z,36.65
2022-12-18T04:32:05.589Z,36.70
2022-12-18T04:34:31.840Z,36.83
2022-12-18T04:36:58.089Z,36.64
2022-12-18T04:39:24.708Z,36.25
2022-12-18T04:41:51.346Z,36.61
2022-12-18T04:44:17.643Z,35.81
2022-12-18T04:46:43.942Z,34.76
2022-12-18T04:49:10.212Z,35.85
2022-12-18T04:51:36.450Z,36.36
2022-12-18T04:54:02.741Z,36.36
2022-12-18T04:56:28.992Z,35.69
2022-12-18T04:58:55.233Z,35.36
2022-12-18T05:01:21.580Z,32.53
2022-12-18T05:03:48.013Z,32.16
2022-12-18T05:06:14.297Z,34.79
2022-12-18T05:08:40.567Z,32.15
2022-12-18T05:11:07.456Z,32.07
2022-12-18T05:13:33.760Z,33.90
2022-12-18T05:16:00.041Z,32.31
2022-12-18T05:18:26.366Z,33.00
2022-12-18T05:20:52.606Z,31.56
2022-12-18T05:23:18.846Z,33.23
2022-12-18T05:25:45.128Z,33.84
2022-12-18T05:28:11.402Z,34.04
2022-12-18T05:30:37.640Z,34.05
2022-12-18T05:33:03.886Z,34.67
2022-12-18T05:35:30.129Z,34.08
2022-12-18T05:37:56.369Z,34.88
2022-12-18T05:40:22.621Z,34.93
2022-12-18T05:42:48.877Z,35.54
2022-12-18T05:45:15.152Z,36.10
2022-12-18T05:47:41.428Z,36.04
2022-12-18T05:50:07.684Z,36.06
2022-12-18T05:52:33.952Z,35.57
2022-12-18T05:55:00.192Z,36.67
2022-12-18T05:57:26.469Z,36.01
2022-12-18T05:59:52.715Z,36.84
2022-12-18T06:02:19.085Z,34.48
2022-12-18T06:04:45.446Z,35.02
2022-12-18T06:07:11.701Z,35.20
2022-12-18T06:09:37.962Z,35.71
2022-12-18T06:12:04.201Z,35.96
2022-12-18T06:14:30.442Z,35.08
2022-12-18T06:16:56.696Z,34.43
2022-12-18T06:19:22.939Z,35.49
2022-12-18T06:21:49.213Z,35.27
2022-12-18T06:24:15.484Z,35.64
2022-12-18T06:26:41.729Z,33.99
2022-12-18T06:29:07.997Z,34.56
2022-12-18T06:31:34.281Z,35.33
2022-12-18T06:34:00.565Z,34.62
2022-12-18T06:36:27.615Z,31.18
2022-12-18T06:38:53.877Z,32.62
2022-12-18T06:41:20.133Z,33.06
2022-12-18T06:43:46.373Z,29.79
2022-12-18T06:46:12.797Z,29.27
2022-12-18T06:48:39.117Z,30.79
2022-12-18T06:51:05.395Z,32.69
2022-12-18T06:53:31.638Z,33.89
2022-12-18T06:55:57.873Z,34.62
2022-12-18T06:58:24.141Z,32.67
2022-12-18T07:00:50.431Z,34.45
2022-12-18T07:03:16.740Z,31.97
2022-12-18T07:05:42.990Z,32.25
2022-12-18T07:08:09.244Z,31.47
2022-12-18T07:10:36.509Z,32.47
2022-12-18T07:13:02.883Z,29.50
2022-12-18T07:15:29.133Z,30.30
2022-12-18T07:17:55.379Z,30.97
2022-12-18T07:20:21.642Z,29.59
2022-12-18T07:22:50.828Z,28.34
2022-12-18T07:25:21.010Z,29.50
2022-12-18T07:27:47.265Z,29.85
2022-12-18T07:30:13.512Z,29.87
2022-12-18T07:32:39.754Z,32.04
2022-12-18T07:35:05.997Z,31.66
2022-12-18T07:37:32.249Z,30.61
2022-12-18T07:39:58.513Z,30.67
2022-12-18T07:42:24.773Z,31.89
2022-12-18T07:44:51.995Z,30.87
2022-12-18T07:47:18.256Z,31.41
2022-12-18T07:49:44.521Z,30.22
2022-12-18T07:52:10.795Z,30.95
2022-12-18T07:54:37.041Z,28.85
2022-12-18T07:57:03.298Z,29.51
2022-12-18T07:59:29.562Z,30.19
2022-12-18T08:01:56.048Z,32.46
2022-12-18T08:04:22.389Z,31.55
2022-12-18T08:06:48.670Z,29.50
2022-12-18T08:09:14.943Z,27.82
2022-12-18T08:11:41.311Z,29.47
2022-12-18T08:14:07.585Z,30.62
2022-12-18T08:16:33.870Z,30.68
2022-12-18T08:19:00.121Z,28.00
2022-12-18T08:21:26.377Z,28.81
2022-12-18T08:23:52.817Z,30.06
2022-12-18T08:26:19.140Z,29.62
2022-12-18T08:28:45.735Z,30.75
2022-12-18T08:31:12.041Z,29.34
2022-12-18T08:33:38.602Z,30.31
2022-12-18T08:36:05.198Z,30.89
2022-12-18T08:38:31.457Z,30.96
2022-12-18T08:40:57.756Z,30.85
2022-12-18T08:43:24.028Z,30.07
2022-12-18T08:45:50.356Z,29.43
2022-12-18T08:48:20.665Z,29.65
2022-12-18T08:50:48.330Z,30.66
2022-12-18T08:53:14.700Z,29.64
2022-12-18T08:55:43.545Z,30.91
2022-12-18T08:58:12.053Z,32.25
2022-12-18T09:00:38.328Z,31.61
2022-12-18T09:03:04.625Z,29.61
2022-12-18T09:05:30.944Z,30.04
2022-12-18T09:07:57.188Z,30.13
2022-12-18T09:10:23.523Z,28.88
2022-12-18T09:12:49.778Z,29.99
2022-12-18T09:15:16.108Z,31.16
2022-12-18T09:17:42.472Z,29.91
2022-12-18T09:20:08.718Z,28.78
2022-12-18T09:22:34.957Z,29.59
2022-12-18T09:25:01.226Z,30.80
2022-12-18T09:27:27.481Z,33.61
2022-12-18T09:29:53.725Z,37.29
2022-12-18T09:32:22.444Z,29.76
2022-12-18T09:34:49.049Z,30.22
2022-12-18T09:37:15.288Z,30.77
2022-12-18T09:39:41.544Z,31.37
2022-12-18T09:42:07.791Z,29.95
2022-12-18T09:44:34.072Z,28.93
2022-12-18T09:47:00.368Z,30.32
2022-12-18T09:49:26.625Z,31.25
2022-12-18T09:51:52.884Z,30.62
2022-12-18T09:54:19.142Z,31.14
2022-12-18T09:56:45.577Z,30.65
2022-12-18T09:59:11.814Z,30.63
2022-12-18T10:01:44.258Z,31.34
2022-12-18T10:04:11.042Z,31.25
2022-12-18T10:06:37.354Z,30.33
2022-12-18T10:09:03.591Z,30.62
2022-12-18T10:11:29.835Z,31.87
2022-12-18T10:13:56.077Z,31.68
2022-12-18T10:16:22.384Z,32.39
2022-12-18T10:18:48.695Z,34.25
2022-12-18T10:21:14.935Z,36.64
2022-12-18T10:23:45.083Z,35.94
2022-12-18T10:26:14.379Z,35.38
2022-12-18T10:28:41.619Z,35.70
2022-12-18T10:31:08.258Z,36.25
2022-12-18T10:33:34.554Z,36.14
2022-12-18T10:36:00.817Z,36.44
2022-12-18T10:38:27.072Z,37.15
2022-12-18T10:40:53.423Z,36.98
2022-12-18T10:43:19.674Z,38.00
2022-12-18T10:45:45.931Z,37.53
2022-12-18T10:48:12.204Z,36.53
2022-12-18T10:51:09.832Z,35.80
2022-12-18T10:53:24.673Z,37.31
2022-12-18T10:55:51.457Z,36.00
2022-12-18T10:58:19.979Z,35.79
2022-12-18T11:00:49.798Z,35.47
2022-12-18T11:03:16.113Z,33.15
2022-12-18T11:05:42.449Z,33.49
2022-12-18T11:08:08.693Z,32.91
2022-12-18T11:10:34.934Z,33.24
2022-12-18T11:13:01.209Z,33.75
2022-12-18T11:15:29.106Z,34.21
2022-12-18T11:17:55.380Z,35.23
2022-12-18T11:20:21.622Z,33.37
2022-12-18T11:22:47.882Z,33.56
2022-12-18T11:28:00.353Z,33.44
2022-12-18T11:30:26.748Z,33.59
2022-12-18T11:32:52.995Z,33.77
2022-12-18T11:35:19.234Z,35.17
2022-12-18T11:37:45.485Z,33.65
2022-12-18T11:40:11.734Z,34.04
2022-12-18T11:42:38.001Z,34.50
2022-12-18T11:45:04.263Z,35.09
2022-12-18T11:47:30.534Z,34.75
2022-12-18T11:49:56.772Z,34.70
2022-12-18T11:52:23.026Z,34.22
2022-12-18T11:54:49.284Z,34.39
2022-12-18T11:57:15.530Z,34.87
2022-12-18T11:59:41.769Z,34.48
2022-12-18T12:02:08.097Z,33.46
2022-12-18T12:04:34.414Z,33.80
2022-12-18T12:07:03.208Z,35.29
2022-12-18T12:09:29.748Z,34.29
2022-12-18T12:11:56.006Z,35.81
2022-12-18T12:14:22.237Z,35.99
2022-12-18T12:16:48.515Z,35.53
2022-12-18T12:19:14.770Z,36.20
2022-12-18T12:21:41.020Z,37.14
2022-12-18T12:24:07.285Z,37.92
2022-12-18T12:26:33.526Z,34.99
2022-12-18T12:28:59.933Z,35.22
2022-12-18T12:31:26.240Z,35.70
2022-12-18T12:33:52.518Z,35.23
2022-12-18T12:36:18.760Z,36.26
2022-12-18T12:38:51.418Z,35.64
2022-12-18T12:41:18.325Z,35.27
2022-12-18T12:43:50.371Z,34.36
2022-12-18T12:46:17.498Z,34.40
2022-12-18T12:48:44.141Z,34.43
2022-12-18T12:51:10.567Z,34.26
2022-12-18T12:53:37.157Z,35.45
2022-12-18T12:56:04.437Z,34.87
2022-12-18T12:58:30.789Z,36.41
2022-12-18T13:00:57.157Z,36.04
2022-12-18T13:03:23.513Z,36.22
2022-12-18T13:05:50.013Z,36.91
2022-12-18T13:08:16.259Z,37.85
2022-12-18T13:10:44.637Z,36.49
2022-12-18T13:13:11.010Z,36.52
2022-12-18T13:15:39.772Z,35.85
2022-12-18T13:18:06.316Z,35.67
2022-12-18T13:20:34.031Z,36.67
2022-12-18T13:23:00.961Z,36.48
2022-12-18T13:25:27.498Z,35.42
2022-12-18T13:27:53.758Z,35.97
2022-12-18T13:30:22.122Z,36.79
2022-12-18T13:32:49.433Z,36.27
2022-12-18T13:35:15.686Z,36.10
2022-12-18T13:37:42.157Z,34.79
2022-12-18T13:40:08.800Z,35.93
2022-12-18T13:42:35.057Z,36.51
2022-12-18T13:45:01.398Z,36.58
2022-12-18T13:47:27.742Z,35.05
2022-12-18T13:49:54.257Z,35.93
2022-12-18T13:52:20.520Z,35.75
2022-12-18T13:54:46.759Z,35.88
2022-12-18T13:57:14.504Z,36.39
2022-12-18T13:59:42.701Z,36.70
2022-12-18T14:02:09.112Z,36.44
2022-12-18T14:04:35.575Z,36.82
2022-12-18T14:07:01.844Z,36.26
2022-12-18T14:09:28.109Z,36.03
2022-12-18T14:11:56.056Z,37.09
2022-12-18T14:14:22.760Z,37.50
2022-12-18T14:16:50.401Z,37.51
2022-12-18T14:19:16.866Z,37.38
2022-12-18T14:21:43.107Z,36.06
2022-12-18T14:24:09.345Z,36.98
2022-12-18T14:26:35.604Z,37.69
2022-12-18T14:29:01.866Z,36.68
2022-12-18T14:31:28.123Z,38.94
2022-12-18T14:33:54.376Z,43.60
2022-12-18T14:36:20.630Z,41.68
2022-12-18T14:38:46.890Z,39.43
2022-12-18T14:41:13.149Z,38.63
2022-12-18T14:43:39.738Z,35.25
2022-12-18T14:46:06.241Z,37.12
2022-12-18T14:48:32.536Z,38.17
2022-12-18T14:50:58.782Z,38.38
2022-12-18T14:53:25.024Z,37.57
2022-12-18T14:55:51.417Z,37.89
2022-12-18T14:58:17.664Z,38.93
2022-12-18T15:00:43.921Z,40.42
2022-12-18T15:03:10.194Z,38.81
2022-12-18T15:05:36.494Z,38.48
2022-12-18T15:08:02.757Z,38.28
2022-12-18T15:10:29.007Z,37.96
2022-12-18T15:12:55.249Z,37.73
2022-12-18T15:15:21.597Z,37.99
2022-12-18T15:17:47.838Z,36.79
2022-12-18T15:20:14.097Z,36.38
2022-12-18T15:22:40.358Z,36.80
2022-12-18T15:25:06.597Z,37.85
2022-12-18T15:27:32.847Z,37.91
2022-12-18T15:29:59.111Z,35.10
2022-12-18T15:32:26.389Z,37.29
2022-12-18T15:34:52.630Z,38.03
2022-12-18T15:37:18.892Z,36.33
2022-12-18T15:39:45.133Z,36.39
2022-12-18T15:42:11.370Z,33.89
2022-12-18T15:44:37.628Z,33.02
2022-12-18T15:47:03.890Z,33.79
2022-12-18T15:49:30.139Z,35.15
2022-12-18T15:51:56.383Z,40.37
2022-12-18T15:54:22.630Z,39.90
2022-12-18T15:56:48.870Z,39.55
2022-12-18T15:59:15.964Z,37.24
2022-12-18T16:01:42.807Z,35.42
2022-12-18T16:04:09.383Z,35.29
2022-12-18T16:06:51.079Z,34.91
2022-12-18T16:09:26.198Z,34.74
2022-12-18T16:11:52.914Z,35.14
2022-12-18T16:14:19.169Z,38.08
2022-12-18T16:16:45.422Z,35.66
2022-12-18T16:19:11.673Z,33.90
2022-12-18T16:21:37.925Z,35.00
2022-12-18T16:24:04.177Z,34.01
2022-12-18T16:26:30.427Z,34.70
2022-12-18T16:28:56.674Z,34.73
2022-12-18T16:31:22.969Z,35.39
2022-12-18T16:33:49.264Z,34.16
2022-12-18T16:36:15.516Z,35.28
2022-12-18T16:38:41.791Z,34.85
2022-12-18T16:41:08.038Z,37.44
2022-12-18T16:43:34.277Z,35.70
2022-12-18T16:46:00.595Z,33.61
2022-12-18T16:48:26.956Z,35.85
2022-12-18T16:50:53.197Z,38.24
2022-12-18T16:53:19.459Z,37.57
2022-12-18T16:55:46.280Z,38.56
2022-12-18T16:58:12.532Z,38.62
2022-12-18T17:00:38.814Z,38.85
2022-12-18T17:03:05.237Z,42.36
2022-12-18T17:05:31.574Z,41.85
2022-12-18T17:07:57.815Z,40.12
2022-12-18T17:10:24.077Z,38.94
2022-12-18T17:12:50.343Z,37.95
2022-12-18T17:15:16.594Z,40.50
2022-12-18T17:17:43.514Z,41.31
2022-12-18T17:20:09.757Z,45.39
2022-12-18T17:22:36.000Z,51.53
2022-12-18T17:25:02.258Z,46.69
2022-12-18T17:27:28.508Z,42.99
2022-12-18T17:29:54.744Z,37.18
2022-12-18T17:32:21.005Z,38.15
2022-12-18T17:34:47.243Z,35.61
2022-12-18T17:37:13.521Z,34.75
2022-12-18T17:39:39.773Z,35.37
2022-12-18T17:42:06.037Z,35.47
2022-12-18T17:44:33.989Z,33.63
2022-12-18T17:47:00.292Z,33.17
2022-12-18T17:49:26.584Z,32.19
2022-12-18T17:51:52.827Z,32.72
2022-12-18T17:54:19.075Z,34.24
2022-12-18T17:56:45.334Z,33.36
2022-12-18T17:59:11.589Z,36.30
2022-12-18T18:01:44.001Z,39.71
2022-12-18T18:04:11.166Z,41.06
2022-12-18T18:06:39.068Z,41.08
2022-12-18T18:09:05.762Z,41.02
2022-12-18T18:11:34.391Z,39.05
2022-12-18T18:14:00.767Z,35.85
2022-12-18T18:16:27.072Z,34.15
2022-12-18T18:18:53.342Z,34.21
2022-12-18T18:21:19.606Z,36.54
2022-12-18T18:23:47.073Z,32.53
2022-12-18T18:26:15.115Z,34.92
2022-12-18T18:28:41.441Z,37.31
2022-12-18T18:31:07.744Z,37.66
2022-12-18T18:33:34.070Z,36.50
2022-12-18T18:36:00.333Z,35.99
2022-12-18T18:38:26.592Z,39.81
2022-12-18T18:40:52.840Z,41.71
2022-12-18T18:43:19.086Z,36.27
2022-12-18T18:45:45.386Z,34.10
2022-12-18T18:48:13.562Z,33.70
2022-12-18T18:50:39.816Z,36.72
2022-12-18T18:53:06.081Z,39.06
2022-12-18T18:55:32.352Z,44.08
2022-12-18T18:57:58.714Z,49.23
2022-12-18T19:00:26.485Z,47.87
2022-12-18T19:02:57.669Z,46.22
2022-12-18T19:05:26.621Z,47.53
2022-12-18T19:07:52.922Z,46.86
2022-12-18T19:10:19.193Z,46.93
2022-12-18T19:12:45.450Z,51.71
2022-12-18T19:15:11.698Z,43.55
2022-12-18T19:17:40.001Z,39.03
2022-12-18T19:20:06.533Z,39.41
2022-12-18T19:22:34.609Z,38.78
2022-12-18T19:25:00.868Z,38.11
2022-12-18T19:27:27.119Z,36.69
2022-12-18T19:29:53.354Z,36.66
2022-12-18T19:32:19.659Z,36.09
2022-12-18T19:34:45.993Z,35.93
2022-12-18T19:37:13.979Z,40.73
2022-12-18T19:39:40.424Z,47.22
2022-12-18T19:42:06.661Z,44.48
2022-12-18T19:44:32.917Z,44.74
2022-12-18T19:46:59.163Z,41.88
2022-12-18T19:49:25.402Z,40.45
2022-12-18T19:51:51.654Z,40.29
2022-12-18T19:54:18.070Z,37.55
2022-12-18T19:56:44.362Z,35.82
2022-12-18T19:59:10.626Z,35.83
2022-12-18T20:01:37.040Z,36.68
2022-12-18T20:04:03.556Z,36.21
2022-12-18T20:06:30.337Z,38.38
2022-12-18T20:09:00.067Z,36.00
2022-12-18T20:11:27.255Z,34.12
2022-12-18T20:13:53.505Z,33.08
2022-12-18T20:16:19.772Z,32.36
2022-12-18T20:18:46.182Z,32.18
2022-12-18T20:21:14.264Z,32.66
2022-12-18T20:23:41.013Z,32.54
2022-12-18T20:26:08.548Z,32.18
2022-12-18T20:28:35.030Z,33.69
2022-12-18T20:31:01.305Z,36.05
2022-12-18T20:33:27.655Z,37.70
2022-12-18T20:35:53.894Z,58.72
2022-12-18T20:38:20.514Z,58.64
2022-12-18T20:40:47.936Z,47.26
2022-12-18T20:43:17.310Z,50.25
2022-12-18T20:45:43.880Z,40.90
2022-12-18T20:48:12.134Z,39.35
2022-12-18T20:50:38.377Z,37.03
2022-12-18T20:53:04.633Z,40.46
2022-12-18T20:55:30.901Z,44.23
2022-12-18T20:57:57.150Z,42.73
2022-12-18T21:00:23.389Z,41.31
2022-12-18T21:02:49.687Z,41.68
2022-12-18T21:05:15.968Z,44.04
2022-12-18T21:07:42.214Z,43.32
2022-12-18T21:10:08.457Z,37.66
2022-12-18T21:12:40.542Z,34.79
2022-12-18T21:15:15.941Z,35.47
2022-12-18T21:17:44.611Z,34.19
2022-12-18T21:20:11.398Z,34.22
2022-12-18T21:22:43.919Z,33.37
2022-12-18T21:25:10.162Z,35.37
2022-12-18T21:27:36.405Z,41.82
2022-12-18T21:30:02.663Z,42.66
2022-12-18T21:32:29.296Z,40.67
2022-12-18T21:34:59.628Z,38.98
2022-12-18T21:37:25.878Z,37.65
2022-12-18T21:39:52.154Z,41.19
2022-12-18T21:42:18.555Z,42.41
2022-12-18T21:44:44.999Z,44.41
2022-12-18T21:47:21.537Z,43.88
2022-12-18T21:49:49.355Z,43.72
2022-12-18T21:52:16.387Z,40.72
2022-12-18T21:54:42.630Z,38.90
2022-12-18T21:57:08.874Z,41.02
2022-12-18T21:59:35.121Z,41.04
2022-12-18T22:02:01.448Z,39.12
2022-12-18T22:04:27.812Z,40.47
2022-12-18T22:06:54.454Z,41.45
2022-12-18T22:09:20.693Z,41.39
2022-12-18T22:11:46.946Z,40.98
2022-12-18T22:14:13.193Z,42.53
2022-12-18T22:16:39.429Z,43.21
2022-12-18T22:19:06.029Z,40.39
2022-12-18T22:21:32.284Z,44.04
2022-12-18T22:23:58.530Z,43.84
2022-12-18T22:26:24.766Z,43.30
2022-12-18T22:28:51.106Z,42.71
2022-12-18T22:31:17.389Z,42.85
2022-12-18T22:33:43.650Z,43.65
2022-12-18T22:36:11.617Z,42.04
2022-12-18T22:38:37.878Z,38.48
2022-12-18T22:41:04.160Z,38.11
2022-12-18T22:43:30.418Z,36.01
2022-12-18T22:45:56.665Z,34.66
2022-12-18T22:48:23.155Z,34.61
2022-12-18T22:50:49.402Z,33.16
2022-12-18T22:53:17.195Z,33.37
2022-12-18T22:55:43.434Z,32.23
2022-12-18T22:58:09.690Z,31.57
2022-12-18T23:00:35.938Z,30.95
2022-12-18T23:03:02.379Z,31.23
2022-12-18T23:05:28.742Z,30.72
2022-12-18T23:07:55.017Z,32.82
2022-12-18T23:10:21.266Z,32.07
2022-12-18T23:12:47.534Z,32.17
2022-12-18T23:15:13.774Z,32.05
2022-12-18T23:17:42.382Z,33.10
2022-12-18T23:20:08.652Z,33.84
2022-12-18T23:22:34.895Z,32.85
2022-12-18T23:25:01.141Z,32.17
2022-12-18T23:27:27.385Z,31.93
2022-12-18T23:29:53.633Z,32.55
2022-12-18T23:32:21.471Z,31.68
2022-12-18T23:34:47.712Z,30.67
2022-12-18T23:37:24.951Z,30.46
2022-12-18T23:40:00.200Z,30.90
2022-12-18T23:42:26.481Z,31.68
2022-12-18T23:44:54.277Z,31.50
2022-12-18T23:47:20.521Z,31.42
2022-12-18T23:49:46.782Z,30.23
2022-12-18T23:52:13.389Z,29.28
2022-12-18T23:54:39.664Z,28.91
2022-12-18T23:57:05.906Z,31.07
2022-12-18T23:59:32.153Z,30.90
